ETNH 200120Z AUTO 26014KT 3600 // ////// 13/13 Q1018 /// ETNH 200020Z AUTO 25012KT 0550 // ////// 14/14 Q1017 /// ETNH 192320Z AUTO 23004KT 4100 // ////// 15/14 Q1017 /// ETNH 192220Z AUTO 26008KT 4500 // ////// 16/15 Q1017 /// ETNH 192120Z AUTO 24004KT 3200 // ////// 16/15 Q1016 /// ETNH 192020Z AUTO 25006KT 3300 // ////// 16/16 Q1016 /// ETNH 191920Z AUTO 21003KT 2700 // ////// 17/16 Q1016 /// ETNH 191820Z AUTO 34001KT 1800 // ////// 17/16 Q1014 /// ETNH 191720Z VRB03KT 8000 -RA FEW040 BKN090 BKN260 18/16 Q1015 BLU ETNH 191620Z 27013KT 8000 FEW040 BKN100 BKN260 20/15 Q1016 BLU ETNH 191605Z 27019KT 9000 FEW040 SCT090 BKN260 21/15 Q1016 BLU+FCST CANCEL ETNH 191520Z 25007KT 9000 FEW050 SCT080 BKN260 24/15 Q1015 BLU+BLU+ ETNH 191420Z 19003KT 8000 FEW050 SCT120 BKN200 25/17 Q1015 BLU+BLU+ ETNH 191320Z VRB03KT 9000 SCT080 BKN160 25/17 Q1015 BLU BLU+ ETNH 191220Z VRB02KT 9000 SCT100 BKN160 23/16 Q1016 BLU BLU+ ETNH 191120Z 25007KT 9999 BKN180 24/16 Q1016 BLU BLU+ ETNH 191020Z 21006KT 9999 FEW130 OVC180 24/15 Q1017 BLU BLU+ ETNH 190920Z 22007KT 8000 FEW040 SCT130 BKN230 25/15 Q1017 BLU+BLU+ ETNH 190820Z 19006KT 8000 FEW040 SCT120 23/16 Q1017 BLU+BLU+ ETNH 190720Z 15004KT 8000 FEW040 SCT130 BKN210 21/16 Q1017 BLU+BLU+ ETNH 190712Z 15004KT 8000 FEW040 SCT130 20/16 Q1017 BLU+BLU+ ETNH 190620Z VRB03KT 5000 BR FEW040 SCT130 19/16 Q1017 WHT WHT BECMG BLU ETNH 190618Z VRB03KT 5000 BR FEW040 SCT090 BKN250 19/16 Q1017 WHT WHT BECMG BLU ETNH 190520Z 00000KT 2500 MIFG BR FEW040 SCT090 BKN250 16/15 Q1018 YLO YLO BECMG BLU ETNH 190430Z 17001KT 1600 MIFG BR FEW040 BKN250 14/14 Q1018 YLO RED BECMG BLU ETNH 190420Z 00000KT 1100 MIFG BR FEW035 BKN260 14/13 Q1018 AMB RED BECMG BLU ETNH 190348Z VRB01KT 1100 MIFG BR FEW035 BKN260 13/13 Q1018 AMB ETNH 190339Z 19001KT 1600 MIFG BR FEW035 BKN270 13/13 Q1018 YLO ETNH 190320Z 28001KT 1200 MIFG BR FEW035 BKN260 13/13 Q1018 AMB ETNH 190250Z VRB01KT 1500 MIFG BR FEW035 BKN250 14/13 Q1018 AMB ETNH 190220Z AUTO VRB02KT 0400 // ////// 14/14 Q1018 /// ETNH 190120Z AUTO VRB01KT 4000 // ////// 16/15 Q1018 /// ETNH 190020Z AUTO 25007KT 6000 // ////// 19/15 Q1018 /// ETNH 182320Z AUTO 17005KT 6000 // ////// 20/15 Q1018 /// ETNH 182220Z AUTO VRB03KT 6000 // ////// 20/16 Q1018 /// ETNH 182120Z AUTO 18001KT 6000 // ////// 20/15 Q1018 /// ETNH 182056Z VRB02KT 9999 FEW130 BKN280 19/14 Q1018 BLU+FCST CANCEL ETNH 182020Z 10002KT 9999 FEW070 BKN280 18/15 Q1019 BLU+BLU+ ETNH 181920Z 10002KT 9999 FEW070 SCT130 BKN300 20/15 Q1019 BLU+BLU+ ETNH 181820Z 13002KT 9999 FEW045 SCT080 BKN300 23/15 Q1019 BLU+BLU+ ETNH 181720Z 17004KT 9999 FEW045 BKN270 25/12 Q1019 BLU+BLU+ ETNH 181620Z VRB03KT 9999 FEW045 SCT120 BKN250 26/13 Q1019 BLU+BLU+ ETNH 181520Z 19004KT 9999 FEW045 SCT120 BKN270 26/15 Q1020 BLU+BLU+ ETNH 181420Z 19006KT 9999 FEW036 SCT300 25/15 Q1020 BLU+BLU+

METAR Messwerte "HOHN (GER-AFB)" ETNH

Zurück zur Übersicht

Ortsname
Ländercode / m ü. NN
Zeit Temperatur Taupunkt Rel.
Luftfeuchte
Luftdruck:
Altimeter
NN
Station
Wind in Beaufort
(Knoten)
Sichtweite
(Meter)
Wolken
(Meter über Grund)
Wettererscheinung
HOHN (GER-AFB)
DE 6
Fr 20.05. 03:201313100 %1018
1018
1017
W 4 (14)3600  
HOHN (GER-AFB)
DE 6
Fr 20.05. 02:201414100 %1017
1017
1016
WSW 4 (12)550  
HOHN (GER-AFB)
DE 6
Fr 20.05. 01:20151494 %1017
1017
1016
SW 2 (4)4100  
HOHN (GER-AFB)
DE 6
Fr 20.05. 00:20161594 %1017
1017
1016
W 3 (8)4500  
HOHN (GER-AFB)
DE 6
Do 19.05. 23:20161594 %1016
1016
1015
WSW 2 (4)3200  
HOHN (GER-AFB)
DE 6
Do 19.05. 22:201616100 %1016
1016
1015
WSW 2 (6)3300  
HOHN (GER-AFB)
DE 6
Do 19.05. 21:20171694 %1016
1016
1015
SSW 2 (3)2700  
HOHN (GER-AFB)
DE 6
Do 19.05. 20:20171694 %1014
1014
1013
NNW 1 (1)1800  
HOHN (GER-AFB)
DE 6
Do 19.05. 19:20181688 %1015
1015
1014
Uml 2 (3)8000Stark bewölkt (7900)
Stark bewölkt (2700)
Leicht bewölkt (1200)
Regen (schwach)
HOHN (GER-AFB)
DE 6
Do 19.05. 18:20201573 %1016
1016
1015
W 4 (13)8000Stark bewölkt (7900)
Stark bewölkt (3000)
Leicht bewölkt (1200)
 
HOHN (GER-AFB)
DE 6
Do 19.05. 18:05211569 %1016
1016
1015
W 5 (19)9000Stark bewölkt (7900)
Wolkig (2700)
Leicht bewölkt (1200)
 
HOHN (GER-AFB)
DE 6
Do 19.05. 17:20241557 %1015
1015
1014
WSW 3 (7)9000Stark bewölkt (7900)
Wolkig (2400)
Leicht bewölkt (1500)
 
HOHN (GER-AFB)
DE 6
Do 19.05. 16:20251761 %1015
1015
1014
S 2 (3)8000Stark bewölkt (6100)
Wolkig (3700)
Leicht bewölkt (1500)
 
HOHN (GER-AFB)
DE 6
Do 19.05. 15:20251761 %1015
1015
1014
Uml 2 (3)9000Stark bewölkt (4900)
Wolkig (2400)
 
HOHN (GER-AFB)
DE 6
Do 19.05. 14:20231665 %1016
1016
1015
Uml 1 (2)9000Stark bewölkt (4900)
Wolkig (3000)
 
HOHN (GER-AFB)
DE 6
Do 19.05. 13:20241661 %1016
1016
1015
WSW 3 (7)>= 10000Stark bewölkt (5500) 
HOHN (GER-AFB)
DE 6
Do 19.05. 12:20241557 %1017
1017
1016
SSW 2 (6)>= 10000Bedeckt (5500)
Leicht bewölkt (4000)
 
HOHN (GER-AFB)
DE 6
Do 19.05. 11:20251554 %1017
1017
1016
SW 3 (7)8000Stark bewölkt (7000)
Wolkig (4000)
Leicht bewölkt (1200)
 
HOHN (GER-AFB)
DE 6
Do 19.05. 10:20231665 %1017
1017
1016
S 2 (6)8000Wolkig (3700)
Leicht bewölkt (1200)
 
HOHN (GER-AFB)
DE 6
Do 19.05. 09:20211673 %1017
1017
1016
SSO 2 (4)8000Stark bewölkt (6400)
Wolkig (4000)
Leicht bewölkt (1200)
 
HOHN (GER-AFB)
DE 6
Do 19.05. 09:12201678 %1017
1017
1016
SSO 2 (4)8000Wolkig (4000)
Leicht bewölkt (1200)
 
HOHN (GER-AFB)
DE 6
Do 19.05. 08:20191683 %1017
1017
1016
Uml 2 (3)5000Wolkig (4000)
Leicht bewölkt (1200)
Nebeldunst
HOHN (GER-AFB)
DE 6
Do 19.05. 08:18191683 %1017
1017
1016
Uml 2 (3)5000Stark bewölkt (7600)
Wolkig (2700)
Leicht bewölkt (1200)
Nebeldunst
HOHN (GER-AFB)
DE 6
Do 19.05. 07:20161594 %1018
1018
1017
Windstill2500Stark bewölkt (7600)
Wolkig (2700)
Leicht bewölkt (1200)
Boden-Nebel
Nebeldunst
HOHN (GER-AFB)
DE 6
Do 19.05. 06:301414100 %1018
1018
1017
S 1 (1)1600Stark bewölkt (7600)
Leicht bewölkt (1200)
Boden-Nebel
Nebeldunst
HOHN (GER-AFB)
DE 6
Do 19.05. 06:20141394 %1018
1018
1017
Windstill1100Stark bewölkt (7900)
Leicht bewölkt (1100)
Boden-Nebel
Nebeldunst
HOHN (GER-AFB)
DE 6
Do 19.05. 05:481313100 %1018
1018
1017
Uml 1 (1)1100Stark bewölkt (7900)
Leicht bewölkt (1100)
Boden-Nebel
Nebeldunst
HOHN (GER-AFB)
DE 6
Do 19.05. 05:391313100 %1018
1018
1017
S 1 (1)1600Stark bewölkt (8200)
Leicht bewölkt (1100)
Boden-Nebel
Nebeldunst
HOHN (GER-AFB)
DE 6
Do 19.05. 05:201313100 %1018
1018
1017
W 1 (1)1200Stark bewölkt (7900)
Leicht bewölkt (1100)
Boden-Nebel
Nebeldunst
HOHN (GER-AFB)
DE 6
Do 19.05. 04:50141394 %1018
1018
1017
Uml 1 (1)1500Stark bewölkt (7600)
Leicht bewölkt (1100)
Boden-Nebel
Nebeldunst
HOHN (GER-AFB)
DE 6
Do 19.05. 04:201414100 %1018
1018
1017
Uml 1 (2)400  
HOHN (GER-AFB)
DE 6
Do 19.05. 03:20161594 %1018
1018
1017
Uml 1 (1)4000  
HOHN (GER-AFB)
DE 6
Do 19.05. 02:20191578 %1018
1018
1017
WSW 3 (7)6000  
HOHN (GER-AFB)
DE 6
Do 19.05. 01:20201573 %1018
1018
1017
S 2 (5)6000  
HOHN (GER-AFB)
DE 6
Do 19.05. 00:20201678 %1018
1018
1017
Uml 2 (3)6000  
HOHN (GER-AFB)
DE 6
Mi 18.05. 23:20201573 %1018
1018
1017
S 1 (1)6000  
HOHN (GER-AFB)
DE 6
Mi 18.05. 22:56191473 %1018
1018
1017
Uml 1 (2)>= 10000Stark bewölkt (8500)
Leicht bewölkt (4000)
 
HOHN (GER-AFB)
DE 6
Mi 18.05. 22:20181583 %1019
1019
1018
O 1 (2)>= 10000Stark bewölkt (8500)
Leicht bewölkt (2100)
 
HOHN (GER-AFB)
DE 6
Mi 18.05. 21:20201573 %1019
1019
1018
O 1 (2)>= 10000Stark bewölkt (9100)
Wolkig (4000)
Leicht bewölkt (2100)
 
HOHN (GER-AFB)
DE 6
Mi 18.05. 20:20231561 %1019
1019
1018
SO 1 (2)>= 10000Stark bewölkt (9100)
Wolkig (2400)
Leicht bewölkt (1400)
 
HOHN (GER-AFB)
DE 6
Mi 18.05. 19:20251244 %1019
1019
1018
S 2 (4)>= 10000Stark bewölkt (8200)
Leicht bewölkt (1400)
 
HOHN (GER-AFB)
DE 6
Mi 18.05. 18:20261345 %1019
1019
1018
Uml 2 (3)>= 10000Stark bewölkt (7600)
Wolkig (3700)
Leicht bewölkt (1400)
 
HOHN (GER-AFB)
DE 6
Mi 18.05. 17:20261551 %1020
1020
1019
S 2 (4)>= 10000Stark bewölkt (8200)
Wolkig (3700)
Leicht bewölkt (1400)
 
HOHN (GER-AFB)
DE 6
Mi 18.05. 16:20251554 %1020
1020
1019
S 2 (6)>= 10000Wolkig (9100)
Leicht bewölkt (1100)
 

Altimeter: Einstellung am Altimeter (Höhenmesser), die Höhe 0 muss auf diesen Luftdruckwert zeigen, damit das Gerät die Stationshöhe richtig anzeigt.

NN: Luftdruck reduziert auf "Normal Null", auf Meereshöhe, dieser von der Temperatur abhängige Wert wird bisweilen unkorrekt einfach als "Luftdruck" bezeichnet. Eigentlich nur eine fiktive Größe, die es erlaubt, Stationen auf unterschiedlichen Höhen miteinander zu vergleichen.

Station: Realer Luftdruck an der Station.